createdAt,value
2022-10-05T00:00:15.163Z,63.91
2022-10-05T00:04:23.325Z,64.61
2022-10-05T00:08:17.085Z,64.91
2022-10-05T00:12:13.932Z,66.55
2022-10-05T00:16:20.919Z,63.94
2022-10-05T00:20:32.265Z,63.28
2022-10-05T00:24:40.397Z,63.81
2022-10-05T00:28:51.737Z,64.66
2022-10-05T00:33:00.134Z,65.43
2022-10-05T00:37:08.394Z,62.85
2022-10-05T00:41:25.008Z,63.17
2022-10-05T00:45:48.353Z,62.67
2022-10-05T00:50:04.688Z,63.92
2022-10-05T00:54:08.838Z,64.86
2022-10-05T00:58:15.441Z,66.06
2022-10-05T01:02:26.865Z,63.47
2022-10-05T01:06:39.546Z,63.45
2022-10-05T01:10:50.527Z,64.29
2022-10-05T01:15:01.482Z,64.45
2022-10-05T01:19:12.885Z,65.10
2022-10-05T01:23:20.656Z,64.45
2022-10-05T01:27:53.225Z,63.51
2022-10-05T01:32:13.286Z,63.93
2022-10-05T01:36:30.492Z,64.63
2022-10-05T01:40:44.277Z,66.16
2022-10-05T01:44:58.351Z,66.11
2022-10-05T01:49:09.396Z,63.97
2022-10-05T01:53:23.490Z,63.68
2022-10-05T01:57:40.550Z,64.38
2022-10-05T02:01:46.997Z,64.47
2022-10-05T02:06:00.985Z,65.30
2022-10-05T02:10:15.485Z,65.79
2022-10-05T02:14:23.610Z,63.62
2022-10-05T02:18:36.700Z,63.65
2022-10-05T02:22:43.960Z,63.80
2022-10-05T02:26:45.368Z,64.63
2022-10-05T02:30:52.745Z,65.99
2022-10-05T02:35:02.719Z,63.07
2022-10-05T02:39:22.998Z,63.07
2022-10-05T02:43:32.552Z,63.88
2022-10-05T02:47:46.881Z,64.80
2022-10-05T02:52:00.456Z,65.47
2022-10-05T02:56:14.730Z,63.33
2022-10-05T03:00:23.357Z,63.47
2022-10-05T03:04:37.831Z,64.00
2022-10-05T03:08:59.069Z,65.79
2022-10-05T03:13:10.437Z,66.15
2022-10-05T03:17:21.726Z,67.51
2022-10-05T03:21:47.306Z,64.66
2022-10-05T03:26:11.438Z,64.11
2022-10-05T03:30:38.090Z,65.20
2022-10-05T03:34:50.568Z,66.40
2022-10-05T03:38:59.867Z,67.22
2022-10-05T03:43:08.018Z,67.32
2022-10-05T03:47:37.688Z,65.31
2022-10-05T03:51:57.070Z,64.90
2022-10-05T03:56:20.635Z,65.37
2022-10-05T04:00:27.445Z,66.61
2022-10-05T04:04:35.581Z,68.12
2022-10-05T04:09:08.773Z,68.67
2022-10-05T04:13:22.918Z,65.32
2022-10-05T04:17:32.028Z,64.70
2022-10-05T04:21:44.391Z,66.19
2022-10-05T04:25:33.796Z,66.94
2022-10-05T04:29:42.163Z,68.04
2022-10-05T04:33:53.484Z,65.59
2022-10-05T04:38:01.607Z,64.48
2022-10-05T04:41:57.359Z,65.35
2022-10-05T04:45:44.040Z,66.84
2022-10-05T04:49:41.005Z,67.51
2022-10-05T04:53:47.364Z,63.79
2022-10-05T04:57:58.586Z,64.62
2022-10-05T05:02:19.251Z,65.03
2022-10-05T05:06:17.733Z,65.85
2022-10-05T05:10:40.268Z,66.05
2022-10-05T05:14:51.672Z,67.68
2022-10-05T05:18:55.674Z,62.46
2022-10-05T05:22:14.326Z,61.17
2022-10-05T05:26:12.422Z,60.28
2022-10-05T05:30:22.637Z,58.75
2022-10-05T05:34:33.776Z,58.51
2022-10-05T05:38:39.240Z,58.06
2022-10-05T05:42:55.971Z,56.75
2022-10-05T05:47:04.560Z,56.23
2022-10-05T05:51:02.768Z,51.12
2022-10-05T05:54:57.030Z,49.66
2022-10-05T05:58:20.337Z,50.34
2022-10-05T06:02:37.524Z,49.46
2022-10-05T06:06:41.644Z,49.96
2022-10-05T06:10:49.328Z,49.62
2022-10-05T06:14:41.973Z,49.45
2022-10-05T06:18:38.941Z,50.91
2022-10-05T06:22:36.867Z,51.41
2022-10-05T06:26:38.362Z,50.38
2022-10-05T06:30:36.723Z,51.76
2022-10-05T06:34:38.685Z,52.85
2022-10-05T06:38:56.173Z,54.17
2022-10-05T06:43:21.430Z,55.55
2022-10-05T06:47:35.186Z,56.79
2022-10-05T06:51:41.707Z,58.00
2022-10-05T06:56:04.650Z,58.53
2022-10-05T07:00:21.852Z,60.26
2022-10-05T07:04:37.075Z,56.22
2022-10-05T07:08:21.455Z,54.97
2022-10-05T07:12:06.205Z,55.24
2022-10-05T07:16:02.168Z,56.01
2022-10-05T07:19:57.937Z,55.14
2022-10-05T07:23:56.459Z,55.62
2022-10-05T07:27:55.111Z,54.58
2022-10-05T07:32:10.327Z,54.67
2022-10-05T07:36:27.973Z,55.96
2022-10-05T07:40:40.653Z,55.46
2022-10-05T07:45:07.106Z,56.37
2022-10-05T07:48:37.877Z,56.79
2022-10-05T07:52:46.024Z,57.34
2022-10-05T07:56:35.005Z,56.00
2022-10-05T08:00:46.074Z,55.31
2022-10-05T08:04:39.355Z,55.25
2022-10-05T08:07:58.936Z,55.15
2022-10-05T08:11:35.528Z,55.90
2022-10-05T08:15:59.138Z,56.54
2022-10-05T08:20:10.295Z,57.34
2022-10-05T08:24:11.359Z,56.98
2022-10-05T08:28:18.804Z,57.80
2022-10-05T08:32:15.923Z,58.07
2022-10-05T08:35:54.283Z,57.86
2022-10-05T08:39:34.654Z,57.10
2022-10-05T08:43:46.368Z,57.41
2022-10-05T08:47:27.563Z,57.53
2022-10-05T08:51:25.247Z,57.84
2022-10-05T08:56:00.895Z,58.47
2022-10-05T09:00:27.187Z,58.61
2022-10-05T09:04:30.077Z,57.53
2022-10-05T09:08:34.500Z,54.43
2022-10-05T09:12:31.230Z,55.37
2022-10-05T09:16:36.615Z,53.93
2022-10-05T09:20:56.569Z,54.98
2022-10-05T09:24:59.655Z,55.84
2022-10-05T09:29:12.191Z,55.94
2022-10-05T09:33:26.233Z,56.22
2022-10-05T09:37:35.843Z,54.75
2022-10-05T09:42:11.657Z,55.65
2022-10-05T09:45:27.012Z,52.60
2022-10-05T09:49:34.950Z,54.23
2022-10-05T09:53:34.571Z,53.20
2022-10-05T09:57:42.903Z,54.28
2022-10-05T10:01:33.497Z,53.32
2022-10-05T10:05:12.954Z,54.73
2022-10-05T10:09:21.235Z,54.43
2022-10-05T10:13:32.271Z,55.53
2022-10-05T10:17:30.218Z,55.12
2022-10-05T10:21:30.866Z,55.02
2022-10-05T10:24:54.629Z,55.88
2022-10-05T10:28:41.982Z,53.43
2022-10-05T10:32:30.526Z,52.80
2022-10-05T10:35:36.593Z,53.26
2022-10-05T10:39:05.542Z,54.55
2022-10-05T10:43:03.993Z,54.36
2022-10-05T10:46:54.865Z,54.07
2022-10-05T10:50:40.792Z,54.26
2022-10-05T10:54:14.041Z,52.39
2022-10-05T10:57:52.204Z,54.09
2022-10-05T11:02:11.316Z,50.56
2022-10-05T11:06:24.844Z,51.82
2022-10-05T11:10:55.526Z,50.81
2022-10-05T11:14:59.568Z,52.31
2022-10-05T11:18:57.291Z,48.89
2022-10-05T11:22:45.095Z,48.22
2022-10-05T11:26:33.027Z,49.55
2022-10-05T11:30:48.849Z,49.86
2022-10-05T11:34:45.575Z,48.79
2022-10-05T11:38:37.698Z,47.65
2022-10-05T11:42:38.809Z,47.75
2022-10-05T11:46:21.186Z,47.31
2022-10-05T11:50:19.260Z,47.86
2022-10-05T11:54:23.710Z,47.34
2022-10-05T11:58:21.532Z,49.02
2022-10-05T12:01:55.758Z,48.03
2022-10-05T12:05:48.428Z,48.06
2022-10-05T12:10:10.279Z,49.07
2022-10-05T12:14:20.759Z,48.72
2022-10-05T12:18:40.986Z,49.35
2022-10-05T12:22:47.410Z,49.41
2022-10-05T12:26:14.986Z,50.39
2022-10-05T12:29:30.680Z,49.48
2022-10-05T12:33:21.131Z,51.03
2022-10-05T12:36:52.421Z,49.08
2022-10-05T12:41:05.816Z,49.61
2022-10-05T12:45:00.209Z,49.35
2022-10-05T12:48:56.837Z,47.91
2022-10-05T12:52:48.785Z,50.24
2022-10-05T12:57:15.259Z,48.54
2022-10-05T13:01:26.515Z,47.22
2022-10-05T13:05:40.644Z,48.25
2022-10-05T13:09:56.566Z,47.35
2022-10-05T13:14:22.766Z,48.08
2022-10-05T13:18:21.654Z,48.82
2022-10-05T13:22:43.925Z,48.72
2022-10-05T13:26:34.385Z,49.47
2022-10-05T13:30:35.086Z,49.35
2022-10-05T13:35:01.565Z,49.22
2022-10-05T13:38:41.452Z,48.76
2022-10-05T13:43:03.392Z,48.23
2022-10-05T13:46:58.867Z,48.34
2022-10-05T13:51:07.345Z,48.86
2022-10-05T13:54:43.222Z,49.49
2022-10-05T13:58:37.537Z,50.47
2022-10-05T14:02:51.775Z,50.13
2022-10-05T14:06:31.942Z,50.45
2022-10-05T14:10:10.278Z,51.26
2022-10-05T14:13:54.248Z,51.39
2022-10-05T14:18:03.522Z,52.15
2022-10-05T14:21:22.237Z,52.70
2022-10-05T14:24:55.977Z,51.10
2022-10-05T14:28:45.651Z,51.32
2022-10-05T14:32:42.760Z,51.31
2022-10-05T14:36:05.431Z,51.87
2022-10-05T14:39:15.679Z,52.66
2022-10-05T14:42:31.390Z,52.51
2022-10-05T14:46:07.881Z,51.04
2022-10-05T14:50:31.410Z,52.63
2022-10-05T14:57:19.587Z,52.05
2022-10-05T15:00:14.559Z,51.60
2022-10-05T15:03:44.988Z,53.31
2022-10-05T15:08:03.163Z,53.98
2022-10-05T15:12:05.393Z,53.54
2022-10-05T15:16:25.839Z,55.50
2022-10-05T15:20:00.790Z,58.11
2022-10-05T15:23:08.073Z,57.88
2022-10-05T15:26:11.966Z,57.28
2022-10-05T15:30:12.362Z,59.33
2022-10-05T15:34:19.176Z,58.63
2022-10-05T15:37:54.176Z,58.40
2022-10-05T15:42:17.373Z,55.47
2022-10-05T15:46:00.136Z,54.00
2022-10-05T15:50:06.535Z,55.86
2022-10-05T15:53:16.997Z,55.83
2022-10-05T15:56:48.287Z,57.52
2022-10-05T16:00:45.265Z,59.14
2022-10-05T16:04:47.263Z,58.95
2022-10-05T16:08:22.276Z,59.95
2022-10-05T16:12:07.964Z,60.44
2022-10-05T16:16:21.257Z,61.69
2022-10-05T16:20:28.433Z,59.54
2022-10-05T16:24:35.497Z,60.58
2022-10-05T16:28:28.242Z,58.62
2022-10-05T16:32:35.159Z,56.78
2022-10-05T16:36:50.210Z,58.45
2022-10-05T16:40:52.710Z,59.39
2022-10-05T16:44:51.145Z,60.40
2022-10-05T16:49:07.094Z,62.07
2022-10-05T16:53:17.175Z,63.27
2022-10-05T16:57:25.492Z,62.80
2022-10-05T17:01:32.634Z,62.75
2022-10-05T17:06:05.551Z,58.85
2022-10-05T17:10:18.099Z,57.06
2022-10-05T17:14:35.536Z,56.56
2022-10-05T17:18:49.860Z,57.04
2022-10-05T17:22:59.305Z,56.66
2022-10-05T17:27:15.361Z,57.09
2022-10-05T17:31:28.595Z,58.24
2022-10-05T17:35:42.512Z,58.99
2022-10-05T17:39:50.832Z,59.56
2022-10-05T17:43:42.290Z,59.20
2022-10-05T17:47:34.490Z,59.84
2022-10-05T17:51:36.793Z,60.76
2022-10-05T17:55:45.377Z,58.44
2022-10-05T18:00:08.982Z,57.61
2022-10-05T18:04:03.777Z,58.38
2022-10-05T18:08:01.277Z,60.84
2022-10-05T18:10:41.298Z,60.67
2022-10-05T18:14:07.287Z,62.04
2022-10-05T18:17:57.212Z,63.23
2022-10-05T18:22:11.351Z,60.20
2022-10-05T18:25:52.055Z,58.51
2022-10-05T18:30:24.524Z,59.14
2022-10-05T18:34:44.559Z,61.61
2022-10-05T18:38:55.683Z,62.52
2022-10-05T18:43:24.943Z,64.11
2022-10-05T18:47:34.114Z,64.05
2022-10-05T18:51:32.447Z,65.15
2022-10-05T18:55:37.090Z,62.73
2022-10-05T18:59:30.054Z,60.68
2022-10-05T19:03:20.456Z,60.42
2022-10-05T19:07:28.634Z,61.42
2022-10-05T19:11:38.264Z,62.52
2022-10-05T19:16:05.944Z,61.07
2022-10-05T19:20:24.059Z,61.00
2022-10-05T19:24:26.760Z,58.40
2022-10-05T19:28:55.988Z,57.33
2022-10-05T19:33:13.277Z,57.36
2022-10-05T19:37:45.772Z,58.72
2022-10-05T19:41:55.116Z,58.28
2022-10-05T19:45:46.050Z,59.32
2022-10-05T19:49:46.994Z,59.33
2022-10-05T19:53:31.407Z,59.88
2022-10-05T19:57:27.783Z,57.72
2022-10-05T20:01:25.573Z,57.88
2022-10-05T20:05:35.848Z,57.79
2022-10-05T20:09:27.341Z,57.44
2022-10-05T20:13:06.979Z,57.70
2022-10-05T20:17:05.829Z,58.67
2022-10-05T20:20:45.812Z,60.17
2022-10-05T20:24:49.665Z,60.51
2022-10-05T20:28:56.535Z,62.51
2022-10-05T20:32:54.591Z,63.09
2022-10-05T20:37:03.842Z,62.41
2022-10-05T20:41:12.070Z,60.45
2022-10-05T20:45:20.216Z,58.72
2022-10-05T20:49:18.307Z,58.71
2022-10-05T20:53:26.348Z,59.52
2022-10-05T20:57:27.294Z,59.33
2022-10-05T21:01:41.257Z,59.80
2022-10-05T21:05:39.534Z,61.71
2022-10-05T21:09:16.371Z,62.29
2022-10-05T21:13:23.594Z,60.23
2022-10-05T21:17:18.178Z,59.33
2022-10-05T21:21:17.207Z,60.60
2022-10-05T21:25:15.331Z,62.07
2022-10-05T21:29:16.057Z,61.35
2022-10-05T21:33:00.246Z,61.51
2022-10-05T21:37:10.467Z,63.41
2022-10-05T21:41:18.691Z,61.24
2022-10-05T21:44:49.433Z,60.90
2022-10-05T21:48:20.487Z,61.59
2022-10-05T21:52:28.676Z,61.66
2022-10-05T21:56:36.866Z,63.31
2022-10-05T22:00:35.135Z,64.47
2022-10-05T22:04:47.342Z,65.23
2022-10-05T22:08:49.005Z,61.67
2022-10-05T22:12:50.167Z,61.85
2022-10-05T22:16:58.373Z,61.92
2022-10-05T22:20:57.234Z,62.84
2022-10-05T22:25:05.472Z,64.06
2022-10-05T22:29:13.801Z,64.64
2022-10-05T22:33:12.446Z,61.89
2022-10-05T22:37:04.397Z,61.65
2022-10-05T22:41:11.254Z,62.13
2022-10-05T22:45:18.269Z,63.66
2022-10-05T22:49:20.225Z,63.98
2022-10-05T22:53:29.305Z,64.46
2022-10-05T22:57:37.597Z,62.44
2022-10-05T23:01:45.551Z,61.70
2022-10-05T23:05:53.724Z,62.25
2022-10-05T23:10:02.041Z,61.78
2022-10-05T23:14:10.181Z,63.10
2022-10-05T23:18:10.701Z,64.75
2022-10-05T23:22:05.176Z,61.20
2022-10-05T23:26:06.973Z,62.41
2022-10-05T23:30:15.145Z,63.40
2022-10-05T23:34:07.306Z,64.41
2022-10-05T23:38:04.709Z,64.82
2022-10-05T23:42:12.912Z,66.16
2022-10-05T23:45:58.491Z,66.64
2022-10-05T23:50:07.777Z,64.01
2022-10-05T23:54:14.796Z,63.43
2022-10-05T23:58:22.913Z,64.22
